PILOTS ONLINE: 295    ATC ONLINE: 42

CYSY

Sachs Harbour (David Nasogaluak Jr. Saaryuaq) Airport

Location

IATA YSY
City Sachs Harbour
Country  Canada
Latitude 71° 59' 38" N
Longitude 125° 14' 34" W
Elevation 282 ft
Type Medium Airport

Map

Weather

METAR
2014/08/19 23:00
CYSY 192300Z 34022KT 10SM FEW040 05/02 A2990 RMK SC2 9.7/1.6/0.0/0.0/ LAST OBS/NEXT 201300Z SLP132
TAF
2014/08/19 19:00
TAF CYSY 191838Z 1919/1923 35010KT P6SM FEW030 
      RMK NXT FCST WILL BE ISSUED AT 201445Z

Runways

08T/26T 4000 ft / 100 ft

Outbound flights

Callsign Flying to Pilot ATD/STD ETA Aircraft

Inbound flights

Callsign Flying from Pilot ATD ETA Aircraft